Time;durP1;ratioP1;P1;durP2;ratioP2;P2;SDS_P1;SDS_P2;PMS_P1;PMS_P2;Temp;Humidity;BMP_temperature;BMP_pressure;BME280_temperature;BME280_humidity;BME280_pressure;Samples;Min_cycle;Max_cycle;Signal;HPM_P1;HPM_P2
2023/04/16 00:00:22;;;;;;;26.25;9.70;;;;;;;;;;4919372;29;20032;-82
2023/04/16 00:02:48;;;;;;;20.83;6.88;;;;;;;;;;4902020;29;20080;-82
2023/04/16 00:05:14;;;;;;;27.75;8.38;;;;;;;;;;4919627;29;20024;-82
2023/04/16 00:07:40;;;;;;;18.38;7.50;;;;;;;;;;4926582;29;20063;-82
2023/04/16 00:10:15;;;;;;;19.42;6.80;;;;;;;;;;4939488;29;20028;-82
2023/04/16 00:12:41;;;;;;;31.70;9.27;;;;;;;;;;4924052;29;20031;-82
2023/04/16 00:15:07;;;;;;;16.35;5.80;;;;;;;;;;4913039;29;20035;-82
2023/04/16 00:17:33;;;;;;;16.33;6.05;;;;;;;;;;4926316;29;20044;-82
2023/04/16 00:19:59;;;;;;;25.92;10.88;;;;;;;;;;4939181;29;20023;-82
2023/04/16 00:22:25;;;;;;;18.10;5.55;;;;;;;;;;4941090;29;20051;-82
2023/04/16 00:24:51;;;;;;;27.20;8.75;;;;;;;;;;4940244;29;20106;-82
2023/04/16 00:27:19;;;;;;;19.30;9.48;;;;;;;;;;4940167;29;20032;-82
2023/04/16 00:29:45;;;;;;;17.83;6.70;;;;;;;;;;4940738;29;20034;-82
2023/04/16 00:32:11;;;;;;;21.95;6.95;;;;;;;;;;4940545;29;20110;-83
2023/04/16 00:34:37;;;;;;;18.83;5.63;;;;;;;;;;4935005;29;20103;-83
2023/04/16 00:37:03;;;;;;;20.45;6.90;;;;;;;;;;4904974;29;20036;-82
2023/04/16 00:39:29;;;;;;;12.70;5.57;;;;;;;;;;4933691;29;20038;-82
2023/04/16 00:41:55;;;;;;;11.82;5.55;;;;;;;;;;4923303;29;20439;-82
2023/04/16 00:44:21;;;;;;;12.48;4.68;;;;;;;;;;4922759;29;20027;-82
2023/04/16 00:46:47;;;;;;;13.35;6.30;;;;;;;;;;4934229;29;20106;-82
2023/04/16 00:49:13;;;;;;;10.82;4.50;;;;;;;;;;4919613;29;20032;-82
2023/04/16 00:51:56;;;;;;;12.63;5.70;;;;;;;;;;4920657;29;20399;-82
2023/04/16 00:54:25;;;;;;;18.65;6.80;;;;;;;;;;4921279;29;20028;-82
2023/04/16 00:56:51;;;;;;;14.73;5.25;;;;;;;;;;4934027;29;20502;-82
2023/04/16 00:59:17;;;;;;;19.58;8.68;;;;;;;;;;4939765;29;20032;-82
2023/04/16 01:01:43;;;;;;;15.60;5.80;;;;;;;;;;4927367;29;20052;-82
2023/04/16 01:04:09;;;;;;;15.23;5.50;;;;;;;;;;4910969;29;20032;-82
2023/04/16 01:06:35;;;;;;;21.70;7.93;;;;;;;;;;4938969;29;20086;-82
2023/04/16 01:09:01;;;;;;;11.13;5.38;;;;;;;;;;4939106;29;20099;-82
2023/04/16 01:11:27;;;;;;;11.05;4.40;;;;;;;;;;4938848;29;20383;-82
2023/04/16 01:13:53;;;;;;;11.48;6.55;;;;;;;;;;4938764;29;20030;-82
2023/04/16 01:16:19;;;;;;;8.38;4.35;;;;;;;;;;4937747;29;20035;-82
2023/04/16 01:18:52;;;;;;;8.95;4.43;;;;;;;;;;4935972;29;20095;-82
2023/04/16 01:21:18;;;;;;;14.32;5.00;;;;;;;;;;4938527;29;20036;-82
2023/04/16 01:23:44;;;;;;;12.70;4.78;;;;;;;;;;4938540;29;20063;-82
2023/04/16 01:26:10;;;;;;;12.90;4.47;;;;;;;;;;4921837;29;20028;-82
2023/04/16 01:28:36;;;;;;;14.50;5.45;;;;;;;;;;4921829;29;20031;-82
2023/04/16 01:31:02;;;;;;;16.90;4.88;;;;;;;;;;4938490;29;20471;-82
2023/04/16 01:33:35;;;;;;;22.40;7.97;;;;;;;;;;4938985;29;20063;-82
2023/04/16 01:36:09;;;;;;;18.48;4.97;;;;;;;;;;4938392;29;20623;-82
2023/04/16 01:38:35;;;;;;;20.25;6.35;;;;;;;;;;4938397;29;20067;-82
2023/04/16 01:41:01;;;;;;;15.20;5.90;;;;;;;;;;4938648;29;20501;-82
2023/04/16 01:43:27;;;;;;;16.65;6.28;;;;;;;;;;4938756;29;20039;-82
2023/04/16 01:45:58;;;;;;;16.02;6.70;;;;;;;;;;4938880;29;20028;-82
2023/04/16 01:48:24;;;;;;;13.75;6.55;;;;;;;;;;4931679;29;20397;-82
2023/04/16 01:50:50;;;;;;;14.60;5.50;;;;;;;;;;4920227;29;20510;-82
2023/04/16 01:53:16;;;;;;;19.15;8.73;;;;;;;;;;4919481;29;20039;-82
2023/04/16 01:55:42;;;;;;;13.55;6.10;;;;;;;;;;4927438;29;20387;-82
2023/04/16 01:58:09;;;;;;;20.45;7.00;;;;;;;;;;4922598;29;20097;-82
2023/04/16 02:00:35;;;;;;;17.40;6.88;;;;;;;;;;4940485;29;20060;-82
2023/04/16 02:03:01;;;;;;;15.40;6.30;;;;;;;;;;4935375;29;21350;-82
2023/04/16 02:05:27;;;;;;;25.45;9.50;;;;;;;;;;4944354;29;20032;-83
2023/04/16 02:07:53;;;;;;;21.92;7.40;;;;;;;;;;4937977;29;20032;-82
2023/04/16 02:10:19;;;;;;;15.57;6.85;;;;;;;;;;4925152;29;20024;-83
2023/04/16 02:12:46;;;;;;;22.65;8.15;;;;;;;;;;4948282;29;20031;-83
2023/04/16 02:15:12;;;;;;;21.00;8.27;;;;;;;;;;4944719;29;20370;-83
2023/04/16 02:17:38;;;;;;;21.50;6.68;;;;;;;;;;4893897;29;20500;-83
2023/04/16 02:20:06;;;;;;;22.50;8.57;;;;;;;;;;4880799;29;20021;-83
2023/04/16 02:22:32;;;;;;;22.92;9.50;;;;;;;;;;4881069;29;20028;-83
2023/04/16 02:28:02;;;;;;;18.20;7.65;;;;;;;;;;4881126;29;20638;-82
2023/04/16 02:30:28;;;;;;;16.23;5.63;;;;;;;;;;4880788;29;20655;-82
2023/04/16 02:32:54;;;;;;;20.17;7.60;;;;;;;;;;4880132;29;20028;-82
2023/04/16 02:35:20;;;;;;;20.27;10.15;;;;;;;;;;4880904;29;20481;-82
2023/04/16 02:37:46;;;;;;;30.92;9.68;;;;;;;;;;4879384;29;20491;-83
2023/04/16 02:40:12;;;;;;;33.42;12.02;;;;;;;;;;4879935;29;20029;-82
2023/04/16 02:42:38;;;;;;;23.92;9.20;;;;;;;;;;4881095;29;20072;-82
2023/04/16 02:45:04;;;;;;;21.13;7.32;;;;;;;;;;4879489;29;20029;-82
2023/04/16 02:47:30;;;;;;;27.08;10.23;;;;;;;;;;4880692;29;20041;-82
2023/04/16 02:49:56;;;;;;;35.05;11.65;;;;;;;;;;4880908;29;20025;-82
2023/04/16 02:52:22;;;;;;;18.25;5.90;;;;;;;;;;4898508;29;20029;-82
2023/04/16 02:54:48;;;;;;;25.90;9.15;;;;;;;;;;4899479;29;20076;-82
2023/04/16 02:57:14;;;;;;;20.50;8.23;;;;;;;;;;4899270;29;20047;-82
2023/04/16 02:59:40;;;;;;;25.27;8.25;;;;;;;;;;4898423;29;20033;-82
2023/04/16 03:02:06;;;;;;;33.03;11.70;;;;;;;;;;4898164;29;20061;-82
2023/04/16 03:04:32;;;;;;;36.08;12.63;;;;;;;;;;4880523;29;20041;-82
2023/04/16 03:06:58;;;;;;;37.67;13.30;;;;;;;;;;4880395;29;20104;-82
2023/04/16 03:09:38;;;;;;;36.28;11.20;;;;;;;;;;4898243;29;20060;-82
2023/04/16 03:12:06;;;;;;;40.67;14.88;;;;;;;;;;4899432;29;20029;-82
2023/04/16 03:14:32;;;;;;;16.02;7.45;;;;;;;;;;4898236;29;20060;-82
2023/04/16 03:16:58;;;;;;;35.15;14.20;;;;;;;;;;4905980;29;20164;-82
2023/04/16 03:19:24;;;;;;;35.10;14.15;;;;;;;;;;4920688;29;20040;-82
2023/04/16 03:21:50;;;;;;;26.77;11.27;;;;;;;;;;4937970;29;20030;-82
2023/04/16 03:24:16;;;;;;;28.92;11.43;;;;;;;;;;4937399;29;20055;-82
2023/04/16 03:26:42;;;;;;;37.00;13.38;;;;;;;;;;4937781;29;20031;-82
2023/04/16 03:29:08;;;;;;;40.40;13.10;;;;;;;;;;4920456;29;20028;-82
2023/04/16 03:31:34;;;;;;;39.80;12.70;;;;;;;;;;4910407;29;20680;-82
2023/04/16 03:34:00;;;;;;;41.20;13.98;;;;;;;;;;4919599;29;20028;-82
2023/04/16 03:36:26;;;;;;;20.02;8.43;;;;;;;;;;4902110;29;20024;-82
2023/04/16 03:38:52;;;;;;;31.90;10.70;;;;;;;;;;4918710;29;20036;-82
2023/04/16 03:41:18;;;;;;;22.13;9.07;;;;;;;;;;4902014;29;20071;-82
2023/04/16 03:43:45;;;;;;;35.50;13.70;;;;;;;;;;4919360;29;20028;-82
2023/04/16 03:46:11;;;;;;;35.58;13.75;;;;;;;;;;4936359;29;20603;-82
2023/04/16 03:48:36;;;;;;;34.78;14.27;;;;;;;;;;4941772;29;20027;-82
2023/04/16 03:51:03;;;;;;;33.10;12.13;;;;;;;;;;4942217;29;20576;-82
2023/04/16 03:53:29;;;;;;;28.15;11.80;;;;;;;;;;4924175;29;20024;-83
2023/04/16 03:55:55;;;;;;;47.28;14.13;;;;;;;;;;4941952;29;20034;-83
2023/04/16 03:58:33;;;;;;;42.70;13.95;;;;;;;;;;4940458;29;20039;-83
2023/04/16 04:00:59;;;;;;;31.92;12.07;;;;;;;;;;4941019;29;20031;-83
2023/04/16 04:03:25;;;;;;;19.70;7.63;;;;;;;;;;4940856;29;20148;-83
2023/04/16 04:05:51;;;;;;;37.05;13.35;;;;;;;;;;4940823;29;20104;-83
2023/04/16 04:08:17;;;;;;;33.95;12.73;;;;;;;;;;4926053;29;20036;-83
2023/04/16 04:10:44;;;;;;;31.83;12.68;;;;;;;;;;4922662;29;20067;-83
2023/04/16 04:13:10;;;;;;;27.17;11.38;;;;;;;;;;4940870;29;20122;-83
2023/04/16 04:15:36;;;;;;;18.13;8.55;;;;;;;;;;4940493;29;20063;-82
2023/04/16 04:18:02;;;;;;;26.63;10.63;;;;;;;;;;4939055;29;20094;-82
2023/04/16 04:20:28;;;;;;;34.08;11.88;;;;;;;;;;4939909;29;20020;-82
2023/04/16 04:22:54;;;;;;;26.80;10.65;;;;;;;;;;4939793;29;20110;-82
2023/04/16 04:25:20;;;;;;;31.50;11.30;;;;;;;;;;4939643;29;20487;-82
2023/04/16 04:27:46;;;;;;;20.02;7.72;;;;;;;;;;4939732;29;20032;-83
2023/04/16 04:30:12;;;;;;;22.30;7.57;;;;;;;;;;4939788;29;20479;-82
2023/04/16 04:32:38;;;;;;;20.73;8.35;;;;;;;;;;4944247;29;20028;-82
2023/04/16 04:35:04;;;;;;;39.08;12.98;;;;;;;;;;4942001;29;20039;-83
2023/04/16 04:37:30;;;;;;;32.50;11.48;;;;;;;;;;4934698;29;20020;-83
2023/04/16 04:39:56;;;;;;;24.92;10.18;;;;;;;;;;4937315;29;20048;-83
2023/04/16 04:42:22;;;;;;;27.90;9.13;;;;;;;;;;4912192;29;20028;-83
2023/04/16 04:44:48;;;;;;;18.15;8.50;;;;;;;;;;4928659;29;20039;-83
2023/04/16 04:47:31;;;;;;;28.38;10.00;;;;;;;;;;4929366;29;20110;-83
2023/04/16 04:49:57;;;;;;;26.85;9.40;;;;;;;;;;4938163;29;20122;-82
2023/04/16 04:52:23;;;;;;;33.75;11.75;;;;;;;;;;4935192;29;20107;-82
2023/04/16 04:54:49;;;;;;;29.30;12.40;;;;;;;;;;4938907;29;20032;-83
2023/04/16 04:57:15;;;;;;;41.35;13.75;;;;;;;;;;4939028;29;20039;-83
2023/04/16 04:59:41;;;;;;;23.20;9.30;;;;;;;;;;4939644;29;20031;-83
2023/04/16 05:02:07;;;;;;;32.42;11.45;;;;;;;;;;4941443;29;20110;-83
2023/04/16 05:04:33;;;;;;;32.30;12.32;;;;;;;;;;4923969;29;20387;-83
2023/04/16 05:07:00;;;;;;;8.98;5.10;;;;;;;;;;4922917;29;20040;-82
2023/04/16 05:09:26;;;;;;;30.73;9.20;;;;;;;;;;4923044;29;20031;-83
2023/04/16 05:11:52;;;;;;;20.65;8.13;;;;;;;;;;4923168;29;20122;-83
2023/04/16 05:14:18;;;;;;;26.10;11.15;;;;;;;;;;4922841;29;20035;-83
2023/04/16 05:16:44;;;;;;;32.30;13.35;;;;;;;;;;4922449;29;20028;-83
2023/04/16 05:19:10;;;;;;;26.58;9.98;;;;;;;;;;4902005;29;20056;-82
2023/04/16 05:21:36;;;;;;;21.48;8.45;;;;;;;;;;4902854;29;20039;-83
2023/04/16 05:24:02;;;;;;;33.83;11.98;;;;;;;;;;4902869;29;20032;-82
2023/04/16 05:26:38;;;;;;;33.28;11.10;;;;;;;;;;4897587;29;20578;-83
2023/04/16 05:29:04;;;;;;;23.15;10.60;;;;;;;;;;4884268;29;20029;-83
2023/04/16 05:31:30;;;;;;;26.08;9.50;;;;;;;;;;4889273;29;20142;-83
2023/04/16 05:33:56;;;;;;;40.70;11.82;;;;;;;;;;4890568;29;20025;-83
2023/04/16 05:36:22;;;;;;;33.63;11.40;;;;;;;;;;4902039;29;20032;-83
2023/04/16 05:38:48;;;;;;;28.13;7.93;;;;;;;;;;4901790;29;20040;-82
2023/04/16 05:41:15;;;;;;;22.63;8.60;;;;;;;;;;4894304;29;20029;-83
2023/04/16 05:43:41;;;;;;;28.00;10.30;;;;;;;;;;4886809;29;20495;-83
2023/04/16 05:46:11;;;;;;;26.10;9.20;;;;;;;;;;4901145;29;20029;-82
2023/04/16 05:48:37;;;;;;;18.58;7.00;;;;;;;;;;4896005;29;20028;-82
2023/04/16 05:51:03;;;;;;;24.02;10.20;;;;;;;;;;4901325;29;20024;-82
2023/04/16 05:53:29;;;;;;;28.85;11.48;;;;;;;;;;4897738;29;20535;-83
2023/04/16 05:55:55;;;;;;;22.77;10.15;;;;;;;;;;4896182;29;20025;-82
2023/04/16 05:58:21;;;;;;;29.25;12.13;;;;;;;;;;4901285;29;20440;-82
2023/04/16 06:00:47;;;;;;;18.95;7.25;;;;;;;;;;4901179;29;20023;-82
2023/04/16 06:03:13;;;;;;;23.70;7.53;;;;;;;;;;4903609;29;20035;-82
2023/04/16 06:05:39;;;;;;;20.67;9.52;;;;;;;;;;4903607;29;20034;-82
2023/04/16 06:08:05;;;;;;;22.80;10.00;;;;;;;;;;4900953;29;20039;-82
2023/04/16 06:10:31;;;;;;;25.73;10.27;;;;;;;;;;4892840;29;20037;-82
2023/04/16 06:13:04;;;;;;;24.52;8.25;;;;;;;;;;4896750;29;20036;-82
2023/04/16 06:15:30;;;;;;;18.00;8.55;;;;;;;;;;4900085;29;20032;-82
2023/04/16 06:17:56;;;;;;;37.30;12.57;;;;;;;;;;4912075;29;20044;-82
2023/04/16 06:20:22;;;;;;;27.92;10.35;;;;;;;;;;4901728;29;20039;-82
2023/04/16 06:22:48;;;;;;;17.10;8.70;;;;;;;;;;4907878;29;20539;-82
2023/04/16 06:25:13;;;;;;;24.58;7.05;;;;;;;;;;4916215;29;20032;-82
2023/04/16 06:27:39;;;;;;;20.70;7.35;;;;;;;;;;4905735;29;20402;-82
2023/04/16 06:30:10;;;;;;;21.05;8.38;;;;;;;;;;4904313;29;20036;-82
2023/04/16 06:32:36;;;;;;;14.73;5.47;;;;;;;;;;4905642;29;20051;-82
2023/04/16 06:35:02;;;;;;;26.55;10.63;;;;;;;;;;4910229;29;20428;-82
2023/04/16 06:37:28;;;;;;;25.70;9.13;;;;;;;;;;4910409;29;20055;-82
2023/04/16 06:39:54;;;;;;;16.27;6.32;;;;;;;;;;4918597;29;20032;-82
2023/04/16 06:42:20;;;;;;;12.00;6.35;;;;;;;;;;4917875;29;20028;-82
2023/04/16 06:44:46;;;;;;;21.25;8.40;;;;;;;;;;4921160;29;20435;-82
2023/04/16 06:47:12;;;;;;;18.70;7.47;;;;;;;;;;4910543;29;20032;-82
2023/04/16 06:49:39;;;;;;;29.77;9.93;;;;;;;;;;4917278;29;20581;-82
2023/04/16 06:52:05;;;;;;;19.67;8.15;;;;;;;;;;4900584;29;20024;-82
2023/04/16 06:54:31;;;;;;;22.02;7.65;;;;;;;;;;4913372;29;20030;-82
2023/04/16 06:56:57;;;;;;;22.10;9.10;;;;;;;;;;4918227;29;20119;-82
2023/04/16 06:59:23;;;;;;;22.88;10.25;;;;;;;;;;4917548;29;20097;-83
2023/04/16 07:01:49;;;;;;;23.98;8.55;;;;;;;;;;4911484;29;20032;-80
2023/04/16 07:04:15;;;;;;;15.13;6.40;;;;;;;;;;4913705;29;20445;-81
2023/04/16 07:06:41;;;;;;;21.45;7.88;;;;;;;;;;4925604;29;20036;-81
2023/04/16 07:09:07;;;;;;;22.38;8.35;;;;;;;;;;4903002;29;20399;-81
2023/04/16 07:11:33;;;;;;;19.17;8.73;;;;;;;;;;4917141;29;20035;-81
2023/04/16 07:13:59;;;;;;;14.43;5.90;;;;;;;;;;4917327;29;20056;-81
2023/04/16 07:16:25;;;;;;;19.58;8.48;;;;;;;;;;4901920;29;20029;-81
2023/04/16 07:18:51;;;;;;;22.10;8.73;;;;;;;;;;4926791;29;20056;-81
2023/04/16 07:21:17;;;;;;;20.75;8.30;;;;;;;;;;4939231;29;20032;-81
2023/04/16 07:23:43;;;;;;;21.33;7.93;;;;;;;;;;4921447;29;20039;-81
2023/04/16 07:26:16;;;;;;;29.65;10.43;;;;;;;;;;4927998;29;20034;-81
2023/04/16 07:28:42;;;;;;;12.30;6.13;;;;;;;;;;4939728;29;20031;-80
2023/04/16 07:31:15;;;;;;;20.67;8.18;;;;;;;;;;4933195;29;20024;-81
2023/04/16 07:33:41;;;;;;;12.75;6.22;;;;;;;;;;4922826;29;20049;-82
2023/04/16 07:36:07;;;;;;;23.15;9.10;;;;;;;;;;4939636;29;20028;-82
2023/04/16 07:38:33;;;;;;;15.52;5.15;;;;;;;;;;4939591;29;20771;-82
2023/04/16 07:41:00;;;;;;;26.08;9.32;;;;;;;;;;4939857;29;20091;-82
2023/04/16 07:43:28;;;;;;;17.05;7.80;;;;;;;;;;4922064;29;20015;-82
2023/04/16 07:45:54;;;;;;;27.25;9.60;;;;;;;;;;4939749;29;20710;-81
2023/04/16 07:48:21;;;;;;;10.10;4.97;;;;;;;;;;4939740;29;20035;-81
2023/04/16 07:50:54;;;;;;;9.25;4.57;;;;;;;;;;4939093;29;20050;-81
2023/04/16 07:53:20;;;;;;;17.60;6.63;;;;;;;;;;4942070;29;20103;-80
2023/04/16 07:55:46;;;;;;;22.52;8.07;;;;;;;;;;4939215;29;20063;-81
2023/04/16 07:58:12;;;;;;;22.80;8.38;;;;;;;;;;4934636;29;20032;-81
2023/04/16 08:00:38;;;;;;;14.77;6.25;;;;;;;;;;4946863;29;20674;-81
2023/04/16 08:03:05;;;;;;;13.48;5.72;;;;;;;;;;4924981;29;20115;-80
2023/04/16 08:05:31;;;;;;;16.05;7.15;;;;;;;;;;4939466;29;20039;-81
2023/04/16 08:07:57;;;;;;;26.67;9.70;;;;;;;;;;4939361;29;20057;-81
2023/04/16 08:10:23;;;;;;;26.25;8.48;;;;;;;;;;4939233;29;20024;-81
2023/04/16 08:12:49;;;;;;;26.65;7.70;;;;;;;;;;4939270;29;20094;-81
2023/04/16 08:15:15;;;;;;;25.67;8.57;;;;;;;;;;4939063;29;20027;-80
2023/04/16 08:17:41;;;;;;;26.92;8.98;;;;;;;;;;4937792;29;20063;-80
2023/04/16 08:20:07;;;;;;;27.48;9.20;;;;;;;;;;4935607;29;20116;-80
2023/04/16 08:22:33;;;;;;;18.52;6.55;;;;;;;;;;4930155;29;20064;-80
2023/04/16 08:24:59;;;;;;;19.83;8.48;;;;;;;;;;4936797;29;20028;-80
2023/04/16 08:27:25;;;;;;;17.65;6.55;;;;;;;;;;4932629;29;20038;-80
2023/04/16 08:29:51;;;;;;;14.38;5.03;;;;;;;;;;4938810;29;20035;-80
2023/04/16 08:32:17;;;;;;;23.27;8.30;;;;;;;;;;4935050;29;20106;-81
2023/04/16 08:34:43;;;;;;;14.70;6.60;;;;;;;;;;4938877;29;20442;-81
2023/04/16 08:37:15;;;;;;;26.42;8.52;;;;;;;;;;4932469;29;20053;-81
2023/04/16 08:39:41;;;;;;;15.15;6.15;;;;;;;;;;4938061;29;20067;-81
2023/04/16 08:42:11;;;;;;;18.92;7.25;;;;;;;;;;4938987;29;20078;-82
2023/04/16 08:44:41;;;;;;;12.60;6.28;;;;;;;;;;4938531;29;20034;-81
2023/04/16 08:47:08;;;;;;;7.60;4.53;;;;;;;;;;4938665;29;20439;-81
2023/04/16 08:49:35;;;;;;;21.67;7.93;;;;;;;;;;4938458;29;20082;-81
2023/04/16 08:52:06;;;;;;;17.25;5.35;;;;;;;;;;4934115;29;20032;-81
2023/04/16 08:54:36;;;;;;;15.05;5.45;;;;;;;;;;4938082;29;20033;-81
2023/04/16 08:57:05;;;;;;;7.88;5.05;;;;;;;;;;4938696;29;20031;-81
2023/04/16 08:59:31;;;;;;;22.33;7.95;;;;;;;;;;4938800;29;20565;-81
2023/04/16 09:01:58;;;;;;;10.60;5.38;;;;;;;;;;4938273;29;20031;-81
2023/04/16 09:04:31;;;;;;;23.50;10.05;;;;;;;;;;4937883;29;20024;-81
2023/04/16 09:10:24;;;;;;;15.82;6.28;;;;;;;;;;4935540;29;20063;-81
2023/04/16 09:12:50;;;;;;;15.20;4.78;;;;;;;;;;4937564;29;20035;-81
2023/04/16 09:15:16;;;;;;;20.05;6.82;;;;;;;;;;4936608;29;20036;-81
2023/04/16 09:17:42;;;;;;;16.23;7.55;;;;;;;;;;4932202;29;20517;-81
2023/04/16 09:20:09;;;;;;;14.63;6.20;;;;;;;;;;4937945;29;20039;-81
2023/04/16 09:22:36;;;;;;;26.88;8.63;;;;;;;;;;4937941;29;20020;-81
2023/04/16 09:25:02;;;;;;;26.52;8.40;;;;;;;;;;4937899;29;20482;-81
2023/04/16 09:27:29;;;;;;;12.23;7.05;;;;;;;;;;4938280;29;20051;-82
2023/04/16 09:29:55;;;;;;;23.48;7.65;;;;;;;;;;4937604;29;20483;-82
2023/04/16 09:32:26;;;;;;;23.52;9.13;;;;;;;;;;4935738;29;20038;-82
2023/04/16 09:34:59;;;;;;;19.58;5.68;;;;;;;;;;4934204;29;20024;-82
2023/04/16 09:37:28;;;;;;;10.18;4.53;;;;;;;;;;4926448;29;20046;-82
2023/04/16 09:40:16;;;;;;;13.25;5.15;;;;;;;;;;4937690;29;20597;-82
2023/04/16 09:42:42;;;;;;;21.00;8.98;;;;;;;;;;4919573;29;20394;-82
2023/04/16 09:45:08;;;;;;;24.20;8.18;;;;;;;;;;4937716;29;20034;-82
2023/04/16 09:47:56;;;;;;;13.88;6.32;;;;;;;;;;4916103;29;20032;-82
2023/04/16 09:50:25;;;;;;;21.30;8.10;;;;;;;;;;4928839;29;20036;-82
2023/04/16 09:52:51;;;;;;;22.40;8.55;;;;;;;;;;4923627;29;20032;-82
2023/04/16 09:55:22;;;;;;;27.13;8.52;;;;;;;;;;4943823;29;20394;-82
2023/04/16 09:57:48;;;;;;;23.08;10.18;;;;;;;;;;4954870;29;20055;-82
2023/04/16 10:00:18;;;;;;;18.80;9.30;;;;;;;;;;4951418;29;20031;-82
2023/04/16 10:02:44;;;;;;;17.48;7.45;;;;;;;;;;4939421;29;20027;-82
2023/04/16 10:05:28;;;;;;;20.58;9.02;;;;;;;;;;4805026;27;8272574;-75
2023/04/16 10:07:59;;;;;;;13.10;6.15;;;;;;;;;;5084171;28;20090;-75
2023/04/16 10:10:25;;;;;;;24.27;8.68;;;;;;;;;;5078075;28;20103;-75
2023/04/16 10:12:51;;;;;;;28.70;9.75;;;;;;;;;;5076622;28;20359;-74
2023/04/16 10:15:18;;;;;;;24.35;8.75;;;;;;;;;;5083668;28;20063;-75
2023/04/16 10:17:44;;;;;;;21.63;10.40;;;;;;;;;;5082215;28;20052;-75
2023/04/16 10:20:10;;;;;;;21.02;7.28;;;;;;;;;;5077271;28;20111;-74
2023/04/16 10:22:36;;;;;;;16.70;7.00;;;;;;;;;;5075488;28;20027;-75
2023/04/16 10:25:03;;;;;;;20.65;9.85;;;;;;;;;;5083127;28;20483;-75
2023/04/16 10:27:29;;;;;;;19.73;10.35;;;;;;;;;;5078001;28;20040;-75
2023/04/16 10:29:55;;;;;;;14.75;7.90;;;;;;;;;;5079611;28;20089;-75
2023/04/16 10:32:22;;;;;;;18.67;9.27;;;;;;;;;;5077320;28;20470;-75
2023/04/16 10:34:48;;;;;;;15.52;8.55;;;;;;;;;;5075386;28;20013;-75
2023/04/16 10:37:16;;;;;;;19.52;8.73;;;;;;;;;;5080607;28;20024;-75
2023/04/16 10:39:43;;;;;;;15.23;8.23;;;;;;;;;;5078783;28;20075;-75
2023/04/16 10:42:13;;;;;;;13.30;7.38;;;;;;;;;;5083793;28;20127;-75
2023/04/16 10:44:39;;;;;;;13.75;6.28;;;;;;;;;;5082153;28;20139;-75
2023/04/16 10:47:13;;;;;;;19.90;8.45;;;;;;;;;;5077731;28;20027;-74
2023/04/16 10:49:39;;;;;;;19.35;8.50;;;;;;;;;;5075119;28;20032;-75
2023/04/16 10:52:12;;;;;;;16.73;7.28;;;;;;;;;;5078263;28;20024;-75
2023/04/16 10:54:39;;;;;;;11.68;6.45;;;;;;;;;;5077750;28;20483;-74
2023/04/16 10:57:07;;;;;;;21.17;8.30;;;;;;;;;;5073790;28;20467;-74
2023/04/16 10:59:34;;;;;;;23.38;11.05;;;;;;;;;;5080585;28;20025;-75
2023/04/16 11:02:00;;;;;;;25.20;11.02;;;;;;;;;;5078562;28;20103;-74
2023/04/16 11:04:28;;;;;;;13.15;7.72;;;;;;;;;;5095380;28;21371;-75
2023/04/16 11:07:12;;;;;;;23.70;10.18;;;;;;;;;;5098770;28;20334;-74
2023/04/16 11:09:45;;;;;;;10.90;7.13;;;;;;;;;;5096049;28;20035;-74
2023/04/16 11:12:12;;;;;;;14.90;7.35;;;;;;;;;;5098614;28;20027;-75
2023/04/16 11:14:39;;;;;;;14.93;8.13;;;;;;;;;;5100098;28;20039;-75
2023/04/16 11:17:05;;;;;;;9.13;5.38;;;;;;;;;;5090330;28;20028;-74
2023/04/16 11:19:31;;;;;;;23.73;9.70;;;;;;;;;;5083814;28;20012;-74
2023/04/16 11:21:58;;;;;;;13.88;7.13;;;;;;;;;;5084912;28;20039;-75
2023/04/16 11:24:24;;;;;;;12.68;7.38;;;;;;;;;;5092306;28;20028;-75
2023/04/16 11:26:53;;;;;;;23.65;10.57;;;;;;;;;;5091455;28;20474;-75
2023/04/16 11:29:19;;;;;;;23.30;9.65;;;;;;;;;;5092162;28;20028;-75
2023/04/16 11:31:51;;;;;;;11.93;6.60;;;;;;;;;;5092296;28;20042;-75
2023/04/16 11:34:17;;;;;;;18.30;8.20;;;;;;;;;;5086613;28;20048;-75
2023/04/16 11:36:44;;;;;;;20.17;9.60;;;;;;;;;;5096903;28;20058;-74
2023/04/16 11:39:10;;;;;;;17.90;7.70;;;;;;;;;;5092033;28;20595;-74
2023/04/16 11:41:42;;;;;;;16.10;9.27;;;;;;;;;;5091655;28;20024;-74
2023/04/16 11:44:18;;;;;;;14.77;7.18;;;;;;;;;;5093960;28;20028;-74
2023/04/16 11:46:44;;;;;;;17.05;10.20;;;;;;;;;;5084717;28;20037;-74
2023/04/16 11:49:10;;;;;;;22.13;11.55;;;;;;;;;;5095314;28;20489;-74
2023/04/16 11:51:46;;;;;;;25.02;11.23;;;;;;;;;;5094444;28;20036;-74
2023/04/16 11:54:22;;;;;;;24.33;11.50;;;;;;;;;;5093146;28;20111;-74
2023/04/16 11:56:49;;;;;;;24.10;11.65;;;;;;;;;;5092517;28;20024;-73
2023/04/16 11:59:22;;;;;;;18.98;9.07;;;;;;;;;;5095432;28;20039;-73
2023/04/16 12:01:52;;;;;;;14.20;7.60;;;;;;;;;;5091806;28;20180;-73
2023/04/16 12:04:19;;;;;;;27.90;11.82;;;;;;;;;;5084299;28;20502;-74
2023/04/16 12:07:03;;;;;;;25.55;10.82;;;;;;;;;;5090550;28;20059;-74
2023/04/16 12:09:29;;;;;;;21.67;10.10;;;;;;;;;;5088324;28;20477;-74
2023/04/16 12:11:55;;;;;;;25.15;12.48;;;;;;;;;;5092213;28;20038;-74
2023/04/16 12:14:22;;;;;;;22.77;10.77;;;;;;;;;;5096089;28;20029;-74
2023/04/16 12:16:48;;;;;;;16.60;7.82;;;;;;;;;;5091128;28;20058;-74
2023/04/16 12:19:14;;;;;;;24.40;11.25;;;;;;;;;;5091168;28;20485;-73
2023/04/16 12:21:41;;;;;;;22.65;11.75;;;;;;;;;;5092941;28;20058;-74
2023/04/16 12:24:07;;;;;;;21.10;12.43;;;;;;;;;;5096149;28;20115;-74
2023/04/16 12:26:41;;;;;;;21.80;8.88;;;;;;;;;;5094899;28;20489;-73
2023/04/16 12:29:20;;;;;;;19.85;9.57;;;;;;;;;;5091439;28;20082;-74
2023/04/16 12:31:46;;;;;;;22.80;10.23;;;;;;;;;;5098162;28;20023;-74
2023/04/16 12:34:14;;;;;;;28.17;13.25;;;;;;;;;;5092385;28;20027;-73
2023/04/16 12:36:40;;;;;;;26.05;10.05;;;;;;;;;;5086570;28;20031;-74
2023/04/16 12:39:06;;;;;;;23.42;12.38;;;;;;;;;;5092315;28;20034;-74
2023/04/16 12:41:32;;;;;;;22.48;12.10;;;;;;;;;;5097665;28;20031;-74
2023/04/16 12:44:05;;;;;;;22.65;9.90;;;;;;;;;;5089196;28;20054;-73
2023/04/16 12:46:32;;;;;;;17.00;8.65;;;;;;;;;;5091061;28;20028;-74
2023/04/16 12:48:58;;;;;;;18.85;9.40;;;;;;;;;;5098510;28;20024;-74
2023/04/16 12:51:24;;;;;;;14.15;6.38;;;;;;;;;;5090440;28;20024;-74
2023/04/16 12:53:50;;;;;;;19.90;9.52;;;;;;;;;;5084927;28;20028;-74
2023/04/16 12:56:16;;;;;;;25.27;13.85;;;;;;;;;;5087977;28;20035;-74
2023/04/16 12:58:42;;;;;;;23.13;9.95;;;;;;;;;;5091107;28;20485;-73
2023/04/16 13:01:08;;;;;;;17.35;9.15;;;;;;;;;;5082457;28;20032;-74
2023/04/16 13:03:35;;;;;;;19.67;12.32;;;;;;;;;;5073588;28;20402;-73
2023/04/16 13:06:01;;;;;;;25.55;12.77;;;;;;;;;;5085554;28;20039;-74
2023/04/16 13:08:28;;;;;;;27.95;13.50;;;;;;;;;;5091250;28;20546;-74
2023/04/16 13:10:54;;;;;;;20.27;9.85;;;;;;;;;;5092054;28;20012;-73
2023/04/16 13:13:20;;;;;;;22.98;12.30;;;;;;;;;;5097208;28;20144;-74
2023/04/16 13:15:46;;;;;;;26.27;12.98;;;;;;;;;;5096772;28;20024;-74
2023/04/16 13:18:12;;;;;;;16.63;7.72;;;;;;;;;;5089266;28;20117;-74
2023/04/16 13:20:38;;;;;;;22.10;11.32;;;;;;;;;;5090586;28;20055;-74
2023/04/16 13:23:04;;;;;;;14.98;8.45;;;;;;;;;;5092827;28;20043;-74
2023/04/16 13:25:31;;;;;;;19.90;9.88;;;;;;;;;;5090679;28;20020;-74
2023/04/16 13:27:57;;;;;;;27.55;12.25;;;;;;;;;;5093937;28;20019;-74
2023/04/16 13:30:24;;;;;;;23.20;11.60;;;;;;;;;;5099748;28;20046;-74
2023/04/16 13:32:50;;;;;;;16.80;7.40;;;;;;;;;;5096129;28;20096;-74
2023/04/16 13:35:16;;;;;;;14.23;7.90;;;;;;;;;;5093281;28;20458;-74
2023/04/16 13:37:42;;;;;;;31.05;15.32;;;;;;;;;;5097731;28;20027;-74
2023/04/16 13:40:08;;;;;;;16.80;8.38;;;;;;;;;;5096967;28;20478;-73
2023/04/16 13:42:34;;;;;;;20.27;11.57;;;;;;;;;;5089556;28;20039;-74
2023/04/16 13:45:00;;;;;;;25.65;13.32;;;;;;;;;;5085758;28;20133;-74
2023/04/16 13:47:26;;;;;;;23.02;13.40;;;;;;;;;;5089799;28;20035;-74
2023/04/16 13:49:52;;;;;;;21.83;10.43;;;;;;;;;;5095428;28;20024;-74
2023/04/16 13:52:19;;;;;;;27.35;13.98;;;;;;;;;;5086575;28;20063;-77
2023/04/16 13:54:45;;;;;;;20.40;11.18;;;;;;;;;;5089396;28;20046;-76
2023/04/16 13:57:11;;;;;;;28.08;13.40;;;;;;;;;;5088061;28;20028;-74
2023/04/16 13:59:37;;;;;;;22.88;11.23;;;;;;;;;;5087959;28;20435;-75
2023/04/16 14:02:04;;;;;;;26.77;12.15;;;;;;;;;;5095302;28;20110;-75
2023/04/16 14:04:30;;;;;;;23.40;11.75;;;;;;;;;;5098714;28;20056;-75
2023/04/16 14:06:56;;;;;;;22.40;12.30;;;;;;;;;;5107932;28;20078;-74
2023/04/16 14:09:23;;;;;;;27.30;12.63;;;;;;;;;;5101175;28;20034;-74
2023/04/16 14:11:49;;;;;;;28.75;12.73;;;;;;;;;;5093056;28;20055;-74
2023/04/16 14:14:15;;;;;;;25.70;15.48;;;;;;;;;;5101649;28;20060;-74
2023/04/16 14:16:41;;;;;;;24.02;10.38;;;;;;;;;;5092029;28;20039;-74
2023/04/16 14:19:07;;;;;;;25.00;11.10;;;;;;;;;;5101545;28;20571;-74
2023/04/16 14:21:33;;;;;;;24.60;12.38;;;;;;;;;;5098022;28;20077;-75
2023/04/16 14:23:58;;;;;;;26.55;13.77;;;;;;;;;;5112203;28;20024;-74
2023/04/16 14:26:25;;;;;;;11.85;6.85;;;;;;;;;;5091671;28;20462;-73
2023/04/16 14:28:51;;;;;;;23.60;12.23;;;;;;;;;;5081898;28;20031;-73
2023/04/16 14:31:18;;;;;;;24.67;12.48;;;;;;;;;;5105789;28;20024;-74